sensor_id;sensor_type;location;lat;lon;timestamp;temperature;humidity
54832;DHT22;40730;53.068;6.572;2023-05-20T00:00:40;10.40;99.90
54832;DHT22;40730;53.068;6.572;2023-05-20T00:03:05;10.30;99.90
54832;DHT22;40730;53.068;6.572;2023-05-20T00:05:31;10.40;99.90
54832;DHT22;40730;53.068;6.572;2023-05-20T00:07:57;10.40;99.90
54832;DHT22;40730;53.068;6.572;2023-05-20T00:10:22;10.30;99.90
54832;DHT22;40730;53.068;6.572;2023-05-20T00:12:48;10.30;99.90
54832;DHT22;40730;53.068;6.572;2023-05-20T00:15:13;10.30;99.90
54832;DHT22;40730;53.068;6.572;2023-05-20T00:17:39;10.30;99.90
54832;DHT22;40730;53.068;6.572;2023-05-20T00:20:05;10.20;99.90
54832;DHT22;40730;53.068;6.572;2023-05-20T00:22:31;10.20;99.90
54832;DHT22;40730;53.068;6.572;2023-05-20T00:24:57;10.10;99.90
54832;DHT22;40730;53.068;6.572;2023-05-20T00:27:22;10.10;99.90
54832;DHT22;40730;53.068;6.572;2023-05-20T00:29:48;10.10;99.90
54832;DHT22;40730;53.068;6.572;2023-05-20T00:32:14;10.30;99.90
54832;DHT22;40730;53.068;6.572;2023-05-20T00:34:41;10.10;99.90
54832;DHT22;40730;53.068;6.572;2023-05-20T00:37:07;10.20;99.90
54832;DHT22;40730;53.068;6.572;2023-05-20T00:39:33;10.10;99.90
54832;DHT22;40730;53.068;6.572;2023-05-20T00:41:58;10.10;99.90
54832;DHT22;40730;53.068;6.572;2023-05-20T00:44:26;10.10;99.90
54832;DHT22;40730;53.068;6.572;2023-05-20T00:46:53;10.20;99.90
54832;DHT22;40730;53.068;6.572;2023-05-20T00:49:19;10.10;99.90
54832;DHT22;40730;53.068;6.572;2023-05-20T00:51:46;10.10;99.90
54832;DHT22;40730;53.068;6.572;2023-05-20T00:54:12;10.10;99.90
54832;DHT22;40730;53.068;6.572;2023-05-20T00:56:38;10.10;99.90
54832;DHT22;40730;53.068;6.572;2023-05-20T00:59:03;10.40;99.90
54832;DHT22;40730;53.068;6.572;2023-05-20T01:01:30;10.10;99.90
54832;DHT22;40730;53.068;6.572;2023-05-20T01:03:55;10.20;99.90
54832;DHT22;40730;53.068;6.572;2023-05-20T01:06:21;10.10;99.90
54832;DHT22;40730;53.068;6.572;2023-05-20T01:08:46;10.10;99.90
54832;DHT22;40730;53.068;6.572;2023-05-20T01:11:27;10.10;99.90
54832;DHT22;40730;53.068;6.572;2023-05-20T01:14:01;10.10;99.90
54832;DHT22;40730;53.068;6.572;2023-05-20T01:16:29;10.00;99.90
54832;DHT22;40730;53.068;6.572;2023-05-20T01:18:58;10.40;99.90
54832;DHT22;40730;53.068;6.572;2023-05-20T01:21:27;10.00;99.90
54832;DHT22;40730;53.068;6.572;2023-05-20T01:23:54;10.00;99.90
54832;DHT22;40730;53.068;6.572;2023-05-20T01:26:20;10.00;99.90
54832;DHT22;40730;53.068;6.572;2023-05-20T01:28:46;10.00;99.90
54832;DHT22;40730;53.068;6.572;2023-05-20T01:31:20;9.90;99.90
54832;DHT22;40730;53.068;6.572;2023-05-20T01:33:49;9.90;99.90
54832;DHT22;40730;53.068;6.572;2023-05-20T01:36:17;9.90;99.90
54832;DHT22;40730;53.068;6.572;2023-05-20T01:38:44;9.90;99.90
54832;DHT22;40730;53.068;6.572;2023-05-20T01:41:11;9.90;99.90
54832;DHT22;40730;53.068;6.572;2023-05-20T01:43:38;9.80;99.90
54832;DHT22;40730;53.068;6.572;2023-05-20T01:46:05;9.90;99.90
54832;DHT22;40730;53.068;6.572;2023-05-20T01:48:31;9.90;99.90
54832;DHT22;40730;53.068;6.572;2023-05-20T01:50:56;9.90;99.90
54832;DHT22;40730;53.068;6.572;2023-05-20T01:53:22;9.90;99.90
54832;DHT22;40730;53.068;6.572;2023-05-20T01:55:47;9.90;99.90
54832;DHT22;40730;53.068;6.572;2023-05-20T01:58:13;9.90;99.90
54832;DHT22;40730;53.068;6.572;2023-05-20T02:00:38;9.90;99.90
54832;DHT22;40730;53.068;6.572;2023-05-20T02:03:04;9.80;99.90
54832;DHT22;40730;53.068;6.572;2023-05-20T02:05:30;9.80;99.90
54832;DHT22;40730;53.068;6.572;2023-05-20T02:07:55;9.90;99.90
54832;DHT22;40730;53.068;6.572;2023-05-20T02:10:21;9.90;99.90
54832;DHT22;40730;53.068;6.572;2023-05-20T02:12:47;9.80;99.90
54832;DHT22;40730;53.068;6.572;2023-05-20T02:15:13;9.80;99.90
54832;DHT22;40730;53.068;6.572;2023-05-20T02:17:39;9.80;99.90
54832;DHT22;40730;53.068;6.572;2023-05-20T02:20:08;9.80;99.90
54832;DHT22;40730;53.068;6.572;2023-05-20T02:22:35;9.80;99.90
54832;DHT22;40730;53.068;6.572;2023-05-20T02:25:00;9.80;99.90
54832;DHT22;40730;53.068;6.572;2023-05-20T02:27:26;9.80;99.90
54832;DHT22;40730;53.068;6.572;2023-05-20T02:29:52;9.80;99.90
54832;DHT22;40730;53.068;6.572;2023-05-20T02:32:17;9.80;99.90
54832;DHT22;40730;53.068;6.572;2023-05-20T02:34:44;9.80;99.90
54832;DHT22;40730;53.068;6.572;2023-05-20T02:37:10;9.80;99.90
54832;DHT22;40730;53.068;6.572;2023-05-20T02:39:36;9.80;99.90
54832;DHT22;40730;53.068;6.572;2023-05-20T02:42:01;9.80;99.90
54832;DHT22;40730;53.068;6.572;2023-05-20T02:44:28;9.80;99.90
54832;DHT22;40730;53.068;6.572;2023-05-20T02:46:54;9.80;99.90
54832;DHT22;40730;53.068;6.572;2023-05-20T02:49:20;9.80;99.90
54832;DHT22;40730;53.068;6.572;2023-05-20T02:51:46;9.80;99.90
54832;DHT22;40730;53.068;6.572;2023-05-20T02:54:11;9.80;99.90
54832;DHT22;40730;53.068;6.572;2023-05-20T02:56:37;9.80;99.90
54832;DHT22;40730;53.068;6.572;2023-05-20T02:59:02;9.80;99.90
54832;DHT22;40730;53.068;6.572;2023-05-20T03:01:29;9.80;99.90
54832;DHT22;40730;53.068;6.572;2023-05-20T03:03:54;9.80;99.90
54832;DHT22;40730;53.068;6.572;2023-05-20T03:06:20;9.80;99.90
54832;DHT22;40730;53.068;6.572;2023-05-20T03:08:45;9.80;99.90
54832;DHT22;40730;53.068;6.572;2023-05-20T03:11:11;9.70;99.90
54832;DHT22;40730;53.068;6.572;2023-05-20T03:13:37;9.80;99.90
54832;DHT22;40730;53.068;6.572;2023-05-20T03:16:02;9.80;99.90
54832;DHT22;40730;53.068;6.572;2023-05-20T03:18:28;9.80;99.90
54832;DHT22;40730;53.068;6.572;2023-05-20T03:20:54;9.80;99.90
54832;DHT22;40730;53.068;6.572;2023-05-20T03:23:19;9.80;99.90
54832;DHT22;40730;53.068;6.572;2023-05-20T03:25:46;9.80;99.90
54832;DHT22;40730;53.068;6.572;2023-05-20T03:28:12;9.70;99.90
54832;DHT22;40730;53.068;6.572;2023-05-20T03:30:38;9.70;99.90
54832;DHT22;40730;53.068;6.572;2023-05-20T03:33:03;9.70;99.90
54832;DHT22;40730;53.068;6.572;2023-05-20T03:35:30;9.70;99.90
54832;DHT22;40730;53.068;6.572;2023-05-20T03:37:55;9.70;99.90
54832;DHT22;40730;53.068;6.572;2023-05-20T03:40:21;9.70;99.90
54832;DHT22;40730;53.068;6.572;2023-05-20T03:42:47;9.80;99.90
54832;DHT22;40730;53.068;6.572;2023-05-20T03:45:14;9.80;99.90
54832;DHT22;40730;53.068;6.572;2023-05-20T03:47:40;9.80;99.90
54832;DHT22;40730;53.068;6.572;2023-05-20T03:50:06;9.80;99.90
54832;DHT22;40730;53.068;6.572;2023-05-20T03:52:32;9.90;99.90
54832;DHT22;40730;53.068;6.572;2023-05-20T03:54:58;9.90;99.90
54832;DHT22;40730;53.068;6.572;2023-05-20T03:57:24;10.20;99.90
54832;DHT22;40730;53.068;6.572;2023-05-20T03:59:50;9.90;99.90
54832;DHT22;40730;53.068;6.572;2023-05-20T04:02:16;9.90;99.90
54832;DHT22;40730;53.068;6.572;2023-05-20T04:04:42;10.00;99.90
54832;DHT22;40730;53.068;6.572;2023-05-20T04:07:08;10.00;99.90
54832;DHT22;40730;53.068;6.572;2023-05-20T04:09:34;10.10;99.90
54832;DHT22;40730;53.068;6.572;2023-05-20T04:12:00;10.10;99.90
54832;DHT22;40730;53.068;6.572;2023-05-20T04:14:25;10.10;99.90
54832;DHT22;40730;53.068;6.572;2023-05-20T04:16:51;10.20;99.90
54832;DHT22;40730;53.068;6.572;2023-05-20T04:19:16;10.20;99.90
54832;DHT22;40730;53.068;6.572;2023-05-20T04:21:45;10.20;99.90
54832;DHT22;40730;53.068;6.572;2023-05-20T04:24:11;10.30;99.90
54832;DHT22;40730;53.068;6.572;2023-05-20T04:26:37;10.30;99.90
54832;DHT22;40730;53.068;6.572;2023-05-20T04:29:03;10.30;99.90
54832;DHT22;40730;53.068;6.572;2023-05-20T04:31:29;10.40;99.90
54832;DHT22;40730;53.068;6.572;2023-05-20T04:33:56;10.50;99.90
54832;DHT22;40730;53.068;6.572;2023-05-20T04:36:22;10.50;99.90
54832;DHT22;40730;53.068;6.572;2023-05-20T04:38:53;10.60;99.90
54832;DHT22;40730;53.068;6.572;2023-05-20T04:41:19;10.70;99.90
54832;DHT22;40730;53.068;6.572;2023-05-20T04:43:44;10.70;99.90
54832;DHT22;40730;53.068;6.572;2023-05-20T04:46:10;10.80;99.90
54832;DHT22;40730;53.068;6.572;2023-05-20T04:48:35;10.90;99.90
54832;DHT22;40730;53.068;6.572;2023-05-20T04:51:01;11.00;99.90
54832;DHT22;40730;53.068;6.572;2023-05-20T04:53:27;11.00;99.90
54832;DHT22;40730;53.068;6.572;2023-05-20T04:55:55;11.10;99.90
54832;DHT22;40730;53.068;6.572;2023-05-20T04:58:21;11.20;99.90
54832;DHT22;40730;53.068;6.572;2023-05-20T05:00:49;11.20;99.90
54832;DHT22;40730;53.068;6.572;2023-05-20T05:03:15;11.30;99.90
54832;DHT22;40730;53.068;6.572;2023-05-20T05:05:41;11.30;99.90
54832;DHT22;40730;53.068;6.572;2023-05-20T05:08:08;11.30;99.90
54832;DHT22;40730;53.068;6.572;2023-05-20T05:10:34;11.40;99.90
54832;DHT22;40730;53.068;6.572;2023-05-20T05:13:00;11.60;99.90
54832;DHT22;40730;53.068;6.572;2023-05-20T05:15:27;11.50;99.90
54832;DHT22;40730;53.068;6.572;2023-05-20T05:17:52;11.50;99.90
54832;DHT22;40730;53.068;6.572;2023-05-20T05:20:18;11.50;99.90
54832;DHT22;40730;53.068;6.572;2023-05-20T05:22:44;11.60;99.90
54832;DHT22;40730;53.068;6.572;2023-05-20T05:25:11;11.60;99.90
54832;DHT22;40730;53.068;6.572;2023-05-20T05:27:37;11.50;99.90
54832;DHT22;40730;53.068;6.572;2023-05-20T05:30:04;11.50;99.90
54832;DHT22;40730;53.068;6.572;2023-05-20T05:32:30;11.60;99.90
54832;DHT22;40730;53.068;6.572;2023-05-20T05:34:56;11.60;99.90
54832;DHT22;40730;53.068;6.572;2023-05-20T05:37:22;11.60;99.90
54832;DHT22;40730;53.068;6.572;2023-05-20T05:39:48;11.70;99.90
54832;DHT22;40730;53.068;6.572;2023-05-20T05:42:14;11.70;99.90
54832;DHT22;40730;53.068;6.572;2023-05-20T05:44:39;11.70;99.90
54832;DHT22;40730;53.068;6.572;2023-05-20T05:47:06;11.90;99.90
54832;DHT22;40730;53.068;6.572;2023-05-20T05:49:32;12.10;99.90
54832;DHT22;40730;53.068;6.572;2023-05-20T05:51:58;12.20;99.90
54832;DHT22;40730;53.068;6.572;2023-05-20T05:54:24;12.40;99.90
54832;DHT22;40730;53.068;6.572;2023-05-20T05:56:53;12.50;99.90
54832;DHT22;40730;53.068;6.572;2023-05-20T05:59:21;12.60;99.90
54832;DHT22;40730;53.068;6.572;2023-05-20T06:01:47;12.70;99.90
54832;DHT22;40730;53.068;6.572;2023-05-20T06:04:12;12.70;99.90
54832;DHT22;40730;53.068;6.572;2023-05-20T06:06:38;13.00;99.90
54832;DHT22;40730;53.068;6.572;2023-05-20T06:09:03;12.80;99.90
54832;DHT22;40730;53.068;6.572;2023-05-20T06:11:29;12.80;99.90
54832;DHT22;40730;53.068;6.572;2023-05-20T06:13:55;13.00;99.90
54832;DHT22;40730;53.068;6.572;2023-05-20T06:16:21;12.90;99.90
54832;DHT22;40730;53.068;6.572;2023-05-20T06:18:46;13.00;99.90
54832;DHT22;40730;53.068;6.572;2023-05-20T06:21:14;12.90;99.90
54832;DHT22;40730;53.068;6.572;2023-05-20T06:23:40;13.30;99.90
54832;DHT22;40730;53.068;6.572;2023-05-20T06:26:06;13.20;99.90
54832;DHT22;40730;53.068;6.572;2023-05-20T06:28:31;13.40;99.90
54832;DHT22;40730;53.068;6.572;2023-05-20T06:30:57;13.40;99.90
54832;DHT22;40730;53.068;6.572;2023-05-20T06:33:23;13.60;99.90
54832;DHT22;40730;53.068;6.572;2023-05-20T06:35:54;14.10;99.90
54832;DHT22;40730;53.068;6.572;2023-05-20T06:38:19;14.20;99.90
54832;DHT22;40730;53.068;6.572;2023-05-20T06:40:46;14.00;99.90
54832;DHT22;40730;53.068;6.572;2023-05-20T06:43:12;14.20;99.90
54832;DHT22;40730;53.068;6.572;2023-05-20T06:45:39;14.50;99.90
54832;DHT22;40730;53.068;6.572;2023-05-20T06:48:05;14.40;99.90
54832;DHT22;40730;53.068;6.572;2023-05-20T06:50:30;14.30;99.90
54832;DHT22;40730;53.068;6.572;2023-05-20T06:52:56;14.30;99.90
54832;DHT22;40730;53.068;6.572;2023-05-20T06:55:21;14.20;99.90
54832;DHT22;40730;53.068;6.572;2023-05-20T06:57:47;14.20;99.90
54832;DHT22;40730;53.068;6.572;2023-05-20T07:00:13;14.30;99.90
54832;DHT22;40730;53.068;6.572;2023-05-20T07:02:39;14.20;99.90
54832;DHT22;40730;53.068;6.572;2023-05-20T07:05:05;14.20;99.90
54832;DHT22;40730;53.068;6.572;2023-05-20T07:07:31;14.30;99.90
54832;DHT22;40730;53.068;6.572;2023-05-20T07:09:57;14.40;99.90
54832;DHT22;40730;53.068;6.572;2023-05-20T07:12:23;14.50;99.90
54832;DHT22;40730;53.068;6.572;2023-05-20T07:14:48;14.70;99.90
54832;DHT22;40730;53.068;6.572;2023-05-20T07:17:14;14.80;99.90
54832;DHT22;40730;53.068;6.572;2023-05-20T07:19:40;14.90;99.90
54832;DHT22;40730;53.068;6.572;2023-05-20T07:22:05;14.90;99.90
54832;DHT22;40730;53.068;6.572;2023-05-20T07:24:31;15.00;99.90
54832;DHT22;40730;53.068;6.572;2023-05-20T07:26:57;15.10;99.90
54832;DHT22;40730;53.068;6.572;2023-05-20T07:29:22;15.30;99.90
54832;DHT22;40730;53.068;6.572;2023-05-20T07:31:48;15.10;99.90
54832;DHT22;40730;53.068;6.572;2023-05-20T07:34:13;15.10;99.90
54832;DHT22;40730;53.068;6.572;2023-05-20T07:36:39;15.20;99.90
54832;DHT22;40730;53.068;6.572;2023-05-20T07:39:05;15.20;99.90
54832;DHT22;40730;53.068;6.572;2023-05-20T07:41:30;15.10;99.90
54832;DHT22;40730;53.068;6.572;2023-05-20T07:43:56;15.20;99.90
54832;DHT22;40730;53.068;6.572;2023-05-20T07:46:22;15.40;99.90
54832;DHT22;40730;53.068;6.572;2023-05-20T07:48:47;15.60;99.90
54832;DHT22;40730;53.068;6.572;2023-05-20T07:51:13;15.50;99.90
54832;DHT22;40730;53.068;6.572;2023-05-20T07:53:38;15.90;99.90
54832;DHT22;40730;53.068;6.572;2023-05-20T07:56:04;15.70;99.90
54832;DHT22;40730;53.068;6.572;2023-05-20T07:58:30;15.70;99.90
54832;DHT22;40730;53.068;6.572;2023-05-20T08:00:56;15.60;99.90
54832;DHT22;40730;53.068;6.572;2023-05-20T08:03:22;15.90;99.90
54832;DHT22;40730;53.068;6.572;2023-05-20T08:05:48;16.00;99.90
54832;DHT22;40730;53.068;6.572;2023-05-20T08:08:14;16.10;99.90
54832;DHT22;40730;53.068;6.572;2023-05-20T08:10:40;16.20;99.90
54832;DHT22;40730;53.068;6.572;2023-05-20T08:13:06;16.30;99.90
54832;DHT22;40730;53.068;6.572;2023-05-20T08:15:31;16.40;99.90
54832;DHT22;40730;53.068;6.572;2023-05-20T08:17:57;16.40;99.90
54832;DHT22;40730;53.068;6.572;2023-05-20T08:20:22;16.40;99.90
54832;DHT22;40730;53.068;6.572;2023-05-20T08:22:51;16.60;99.90
54832;DHT22;40730;53.068;6.572;2023-05-20T08:25:16;17.00;99.90
54832;DHT22;40730;53.068;6.572;2023-05-20T08:27:42;17.40;99.90
54832;DHT22;40730;53.068;6.572;2023-05-20T08:30:08;17.30;99.90
54832;DHT22;40730;53.068;6.572;2023-05-20T08:32:35;17.40;99.60
54832;DHT22;40730;53.068;6.572;2023-05-20T08:35:01;17.20;98.90
54832;DHT22;40730;53.068;6.572;2023-05-20T08:37:27;17.00;99.40
54832;DHT22;40730;53.068;6.572;2023-05-20T08:39:53;17.00;99.90
54832;DHT22;40730;53.068;6.572;2023-05-20T08:42:24;17.20;99.90
54832;DHT22;40730;53.068;6.572;2023-05-20T08:44:51;17.40;99.30
54832;DHT22;40730;53.068;6.572;2023-05-20T08:47:21;17.40;98.90
54832;DHT22;40730;53.068;6.572;2023-05-20T08:49:50;17.30;98.90
54832;DHT22;40730;53.068;6.572;2023-05-20T08:52:17;17.50;99.90
54832;DHT22;40730;53.068;6.572;2023-05-20T08:54:47;17.90;99.40
54832;DHT22;40730;53.068;6.572;2023-05-20T08:57:14;18.20;98.50
54832;DHT22;40730;53.068;6.572;2023-05-20T08:59:44;18.30;97.20
54832;DHT22;40730;53.068;6.572;2023-05-20T09:02:10;18.40;97.90
54832;DHT22;40730;53.068;6.572;2023-05-20T09:04:36;18.40;96.40
54832;DHT22;40730;53.068;6.572;2023-05-20T09:07:02;18.40;95.50
54832;DHT22;40730;53.068;6.572;2023-05-20T09:09:29;18.30;96.70
54832;DHT22;40730;53.068;6.572;2023-05-20T09:11:54;18.60;96.50
54832;DHT22;40730;53.068;6.572;2023-05-20T09:14:20;18.50;95.30
54832;DHT22;40730;53.068;6.572;2023-05-20T09:16:47;18.80;95.80
54832;DHT22;40730;53.068;6.572;2023-05-20T09:19:13;19.00;94.20
54832;DHT22;40730;53.068;6.572;2023-05-20T09:21:40;19.20;95.00
54832;DHT22;40730;53.068;6.572;2023-05-20T09:24:06;19.50;92.90
54832;DHT22;40730;53.068;6.572;2023-05-20T09:26:32;19.30;92.70
54832;DHT22;40730;53.068;6.572;2023-05-20T09:28:58;19.30;93.70
54832;DHT22;40730;53.068;6.572;2023-05-20T09:31:30;19.30;89.30
54832;DHT22;40730;53.068;6.572;2023-05-20T09:33:55;19.40;90.00
54832;DHT22;40730;53.068;6.572;2023-05-20T09:36:22;19.50;90.00
54832;DHT22;40730;53.068;6.572;2023-05-20T09:38:51;19.40;86.80
54832;DHT22;40730;53.068;6.572;2023-05-20T09:41:22;19.70;89.10
54832;DHT22;40730;53.068;6.572;2023-05-20T09:43:49;19.90;84.60
54832;DHT22;40730;53.068;6.572;2023-05-20T09:46:16;19.70;79.40
54832;DHT22;40730;53.068;6.572;2023-05-20T09:48:42;19.70;82.30
54832;DHT22;40730;53.068;6.572;2023-05-20T09:51:09;19.90;81.60
54832;DHT22;40730;53.068;6.572;2023-05-20T09:53:36;20.00;78.70
54832;DHT22;40730;53.068;6.572;2023-05-20T09:56:02;20.20;80.00
54832;DHT22;40730;53.068;6.572;2023-05-20T09:58:28;20.00;73.60
54832;DHT22;40730;53.068;6.572;2023-05-20T10:00:55;20.10;72.60
54832;DHT22;40730;53.068;6.572;2023-05-20T10:03:21;20.20;72.60
54832;DHT22;40730;53.068;6.572;2023-05-20T10:06:19;19.90;70.90
54832;DHT22;40730;53.068;6.572;2023-05-20T10:09:01;19.60;73.70
54832;DHT22;40730;53.068;6.572;2023-05-20T10:19:37;19.90;81.40
54832;DHT22;40730;53.068;6.572;2023-05-20T10:22:06;20.10;77.40
54832;DHT22;40730;53.068;6.572;2023-05-20T10:24:37;20.10;74.40
54832;DHT22;40730;53.068;6.572;2023-05-20T10:27:11;20.10;78.20
54832;DHT22;40730;53.068;6.572;2023-05-20T10:29:42;20.60;76.70
54832;DHT22;40730;53.068;6.572;2023-05-20T10:32:08;20.40;74.50
54832;DHT22;40730;53.068;6.572;2023-05-20T10:34:44;20.40;73.40
54832;DHT22;40730;53.068;6.572;2023-05-20T10:37:22;20.50;70.70
54832;DHT22;40730;53.068;6.572;2023-05-20T10:39:48;20.80;73.60
54832;DHT22;40730;53.068;6.572;2023-05-20T10:42:14;20.90;68.40
54832;DHT22;40730;53.068;6.572;2023-05-20T10:44:46;20.40;66.40
54832;DHT22;40730;53.068;6.572;2023-05-20T10:47:12;20.10;67.70
54832;DHT22;40730;53.068;6.572;2023-05-20T10:49:45;20.10;71.50
54832;DHT22;40730;53.068;6.572;2023-05-20T10:52:18;20.60;71.30
54832;DHT22;40730;53.068;6.572;2023-05-20T10:57:20;21.20;66.30
54832;DHT22;40730;53.068;6.572;2023-05-20T10:59:46;21.40;66.10
54832;DHT22;40730;53.068;6.572;2023-05-20T11:02:14;21.10;64.90
54832;DHT22;40730;53.068;6.572;2023-05-20T11:04:44;20.60;64.30
54832;DHT22;40730;53.068;6.572;2023-05-20T11:07:11;20.60;64.80
54832;DHT22;40730;53.068;6.572;2023-05-20T11:09:36;20.60;64.80
54832;DHT22;40730;53.068;6.572;2023-05-20T11:12:02;20.60;65.20
54832;DHT22;40730;53.068;6.572;2023-05-20T11:14:28;20.20;66.60
54832;DHT22;40730;53.068;6.572;2023-05-20T11:16:57;20.50;67.40
54832;DHT22;40730;53.068;6.572;2023-05-20T11:19:24;20.70;65.70
54832;DHT22;40730;53.068;6.572;2023-05-20T11:21:49;20.40;67.60
54832;DHT22;40730;53.068;6.572;2023-05-20T11:24:25;20.20;66.80
54832;DHT22;40730;53.068;6.572;2023-05-20T11:26:51;20.30;68.30
54832;DHT22;40730;53.068;6.572;2023-05-20T11:29:18;20.30;66.10
54832;DHT22;40730;53.068;6.572;2023-05-20T11:31:44;20.10;66.30
54832;DHT22;40730;53.068;6.572;2023-05-20T11:34:11;20.40;67.50
54832;DHT22;40730;53.068;6.572;2023-05-20T11:36:41;20.90;67.70
54832;DHT22;40730;53.068;6.572;2023-05-20T11:39:09;21.20;66.50
54832;DHT22;40730;53.068;6.572;2023-05-20T11:41:35;21.10;63.80
54832;DHT22;40730;53.068;6.572;2023-05-20T11:44:00;20.90;65.10
54832;DHT22;40730;53.068;6.572;2023-05-20T11:46:27;20.80;64.70
54832;DHT22;40730;53.068;6.572;2023-05-20T11:48:53;20.50;65.00
54832;DHT22;40730;53.068;6.572;2023-05-20T11:51:23;20.30;65.70
54832;DHT22;40730;53.068;6.572;2023-05-20T11:53:49;19.90;67.20
54832;DHT22;40730;53.068;6.572;2023-05-20T11:56:14;19.90;68.40
54832;DHT22;40730;53.068;6.572;2023-05-20T11:58:43;19.80;69.90
54832;DHT22;40730;53.068;6.572;2023-05-20T12:01:09;20.00;70.30
54832;DHT22;40730;53.068;6.572;2023-05-20T12:03:35;20.40;67.20
54832;DHT22;40730;53.068;6.572;2023-05-20T12:06:01;20.50;65.00
54832;DHT22;40730;53.068;6.572;2023-05-20T12:08:27;20.60;62.70
54832;DHT22;40730;53.068;6.572;2023-05-20T12:10:53;20.50;61.70
54832;DHT22;40730;53.068;6.572;2023-05-20T12:13:19;20.40;61.60
54832;DHT22;40730;53.068;6.572;2023-05-20T12:15:44;20.40;62.20
54832;DHT22;40730;53.068;6.572;2023-05-20T12:18:10;20.10;62.40
54832;DHT22;40730;53.068;6.572;2023-05-20T12:20:36;20.20;63.10
54832;DHT22;40730;53.068;6.572;2023-05-20T12:23:02;20.30;63.60
54832;DHT22;40730;53.068;6.572;2023-05-20T12:25:28;20.40;63.50
54832;DHT22;40730;53.068;6.572;2023-05-20T12:27:54;20.30;63.30
54832;DHT22;40730;53.068;6.572;2023-05-20T12:30:21;20.30;63.60
54832;DHT22;40730;53.068;6.572;2023-05-20T12:32:48;20.30;64.00
54832;DHT22;40730;53.068;6.572;2023-05-20T12:35:18;20.30;63.30
54832;DHT22;40730;53.068;6.572;2023-05-20T12:37:43;20.20;63.30
54832;DHT22;40730;53.068;6.572;2023-05-20T12:40:10;20.20;64.60
54832;DHT22;40730;53.068;6.572;2023-05-20T12:42:40;20.30;66.40
54832;DHT22;40730;53.068;6.572;2023-05-20T12:45:07;20.00;64.50
54832;DHT22;40730;53.068;6.572;2023-05-20T12:47:33;19.70;65.80
54832;DHT22;40730;53.068;6.572;2023-05-20T12:50:00;19.60;67.90
54832;DHT22;40730;53.068;6.572;2023-05-20T12:52:26;19.70;68.20
54832;DHT22;40730;53.068;6.572;2023-05-20T12:54:55;19.90;68.80
54832;DHT22;40730;53.068;6.572;2023-05-20T12:57:22;19.70;67.20
54832;DHT22;40730;53.068;6.572;2023-05-20T12:59:48;19.50;68.50
54832;DHT22;40730;53.068;6.572;2023-05-20T13:02:14;19.40;70.40
54832;DHT22;40730;53.068;6.572;2023-05-20T13:04:39;19.50;72.40
54832;DHT22;40730;53.068;6.572;2023-05-20T13:07:05;19.70;72.20
54832;DHT22;40730;53.068;6.572;2023-05-20T13:09:30;20.00;69.30
54832;DHT22;40730;53.068;6.572;2023-05-20T13:11:57;20.40;69.90
54832;DHT22;40730;53.068;6.572;2023-05-20T13:14:23;20.80;66.50
54832;DHT22;40730;53.068;6.572;2023-05-20T13:16:49;20.60;64.50
54832;DHT22;40730;53.068;6.572;2023-05-20T13:19:19;20.10;66.40
54832;DHT22;40730;53.068;6.572;2023-05-20T13:21:44;19.90;68.00
54832;DHT22;40730;53.068;6.572;2023-05-20T13:24:10;19.70;69.30
54832;DHT22;40730;53.068;6.572;2023-05-20T13:26:36;19.60;70.20
54832;DHT22;40730;53.068;6.572;2023-05-20T13:29:01;19.50;71.60
54832;DHT22;40730;53.068;6.572;2023-05-20T13:31:27;19.50;71.80
54832;DHT22;40730;53.068;6.572;2023-05-20T13:33:52;19.30;71.70
54832;DHT22;40730;53.068;6.572;2023-05-20T13:36:19;19.40;74.40
54832;DHT22;40730;53.068;6.572;2023-05-20T13:38:45;19.30;73.70
54832;DHT22;40730;53.068;6.572;2023-05-20T13:41:11;19.50;73.50
54832;DHT22;40730;53.068;6.572;2023-05-20T13:43:36;19.70;74.90
54832;DHT22;40730;53.068;6.572;2023-05-20T13:46:02;19.70;72.20
54832;DHT22;40730;53.068;6.572;2023-05-20T13:48:27;19.50;72.30
54832;DHT22;40730;53.068;6.572;2023-05-20T13:50:53;19.40;73.90
54832;DHT22;40730;53.068;6.572;2023-05-20T13:53:19;19.40;76.00
54832;DHT22;40730;53.068;6.572;2023-05-20T13:55:45;19.40;77.90
54832;DHT22;40730;53.068;6.572;2023-05-20T13:58:10;19.50;78.30
54832;DHT22;40730;53.068;6.572;2023-05-20T14:00:36;19.60;78.30
54832;DHT22;40730;53.068;6.572;2023-05-20T14:03:02;19.60;76.90
54832;DHT22;40730;53.068;6.572;2023-05-20T14:05:33;19.50;77.80
54832;DHT22;40730;53.068;6.572;2023-05-20T14:08:00;19.30;78.70
54832;DHT22;40730;53.068;6.572;2023-05-20T14:10:26;19.20;81.20
54832;DHT22;40730;53.068;6.572;2023-05-20T14:12:53;19.20;83.40
54832;DHT22;40730;53.068;6.572;2023-05-20T14:15:19;19.20;87.00
54832;DHT22;40730;53.068;6.572;2023-05-20T14:17:45;19.20;85.20
54832;DHT22;40730;53.068;6.572;2023-05-20T14:20:11;19.20;80.60
54832;DHT22;40730;53.068;6.572;2023-05-20T14:22:36;19.30;78.80
54832;DHT22;40730;53.068;6.572;2023-05-20T14:25:02;19.30;80.80
54832;DHT22;40730;53.068;6.572;2023-05-20T14:27:28;19.10;78.40
54832;DHT22;40730;53.068;6.572;2023-05-20T14:29:54;19.10;80.00
54832;DHT22;40730;53.068;6.572;2023-05-20T14:32:20;19.10;81.40
54832;DHT22;40730;53.068;6.572;2023-05-20T14:34:46;19.00;78.70
54832;DHT22;40730;53.068;6.572;2023-05-20T14:37:11;18.90;77.60
54832;DHT22;40730;53.068;6.572;2023-05-20T14:39:38;19.00;77.30
54832;DHT22;40730;53.068;6.572;2023-05-20T14:42:04;19.00;74.90
54832;DHT22;40730;53.068;6.572;2023-05-20T14:44:30;19.00;75.40
54832;DHT22;40730;53.068;6.572;2023-05-20T14:46:55;19.00;75.90
54832;DHT22;40730;53.068;6.572;2023-05-20T14:49:21;19.00;76.40
54832;DHT22;40730;53.068;6.572;2023-05-20T14:51:47;18.90;76.30
54832;DHT22;40730;53.068;6.572;2023-05-20T14:54:13;18.80;79.10
54832;DHT22;40730;53.068;6.572;2023-05-20T14:56:41;18.70;83.00
54832;DHT22;40730;53.068;6.572;2023-05-20T14:59:07;18.70;87.30
54832;DHT22;40730;53.068;6.572;2023-05-20T15:01:34;18.50;88.50
54832;DHT22;40730;53.068;6.572;2023-05-20T15:04:00;18.50;89.90
54832;DHT22;40730;53.068;6.572;2023-05-20T15:06:26;18.50;90.50
54832;DHT22;40730;53.068;6.572;2023-05-20T15:08:51;18.60;90.60
54832;DHT22;40730;53.068;6.572;2023-05-20T15:11:17;18.60;90.80
54832;DHT22;40730;53.068;6.572;2023-05-20T15:13:43;18.60;86.70
54832;DHT22;40730;53.068;6.572;2023-05-20T15:16:11;18.50;85.90
54832;DHT22;40730;53.068;6.572;2023-05-20T15:18:37;18.60;86.90
54832;DHT22;40730;53.068;6.572;2023-05-20T15:21:02;18.40;87.20
54832;DHT22;40730;53.068;6.572;2023-05-20T15:23:28;18.40;87.70
54832;DHT22;40730;53.068;6.572;2023-05-20T15:25:54;18.30;90.00
54832;DHT22;40730;53.068;6.572;2023-05-20T15:28:22;18.40;90.40
54832;DHT22;40730;53.068;6.572;2023-05-20T15:30:52;18.40;91.10
54832;DHT22;40730;53.068;6.572;2023-05-20T15:33:18;18.40;91.60
54832;DHT22;40730;53.068;6.572;2023-05-20T15:35:44;18.40;90.60
54832;DHT22;40730;53.068;6.572;2023-05-20T15:38:10;18.20;91.20